Barons, Canada
Current Conditions -  °F | °C
As of 6:00 PM on Saturday 22 Nov 2014 (Local Time) from CYQL Reporting Station
Broken Clouds Broken Clouds  
Wind Chill: 27°   Ceiling: 7000
Heat Index: 39°   Visibility: 40mi
Dew Point: 21°   Wind: 31mph
Humidity: 49%   Direction: 290°WNW
Pressure: 29.44"   Gusts: 37mph
Location:  49.98°N, 113.08°W
Report Text: CYQL 230100Z 29027G32KT 40SM BKN070 BKN110 04/M06 A2944 RMK AC5AC2 PRESRR SLP990
Loading
Personal Weather Stations






























Interactive Weather Map New forecast layout! Learn more

10-Day Weather Forecast

Advertisements
Track Severe Weather on mobile